sensor_id;sensor_type;location;lat;lon;timestamp;temperature;humidity
16118;DHT22;8163;50.118;5.342;2022-08-03T00:01:06;21.10;73.70
16118;DHT22;8163;50.118;5.342;2022-08-03T00:03:33;21.10;73.70
16118;DHT22;8163;50.118;5.342;2022-08-03T00:06:00;21.10;73.80
16118;DHT22;8163;50.118;5.342;2022-08-03T00:08:27;21.10;73.90
16118;DHT22;8163;50.118;5.342;2022-08-03T00:10:54;21.10;73.90
16118;DHT22;8163;50.118;5.342;2022-08-03T00:13:21;21.10;74.10
16118;DHT22;8163;50.118;5.342;2022-08-03T00:15:48;21.00;74.10
16118;DHT22;8163;50.118;5.342;2022-08-03T00:18:17;21.00;74.10
16118;DHT22;8163;50.118;5.342;2022-08-03T00:20:45;21.00;74.40
16118;DHT22;8163;50.118;5.342;2022-08-03T00:23:12;21.00;74.40
16118;DHT22;8163;50.118;5.342;2022-08-03T00:25:38;21.00;74.30
16118;DHT22;8163;50.118;5.342;2022-08-03T00:28:07;21.00;74.40
16118;DHT22;8163;50.118;5.342;2022-08-03T00:30:34;20.90;74.50
16118;DHT22;8163;50.118;5.342;2022-08-03T00:33:02;20.90;74.60
16118;DHT22;8163;50.118;5.342;2022-08-03T00:35:30;20.90;74.70
16118;DHT22;8163;50.118;5.342;2022-08-03T00:37:58;20.90;74.90
16118;DHT22;8163;50.118;5.342;2022-08-03T00:40:25;20.80;74.90
16118;DHT22;8163;50.118;5.342;2022-08-03T00:42:54;20.80;75.10
16118;DHT22;8163;50.118;5.342;2022-08-03T00:45:22;20.70;75.20
16118;DHT22;8163;50.118;5.342;2022-08-03T00:47:49;20.70;75.20
16118;DHT22;8163;50.118;5.342;2022-08-03T00:50:18;20.70;75.30
16118;DHT22;8163;50.118;5.342;2022-08-03T00:52:49;20.70;75.50
16118;DHT22;8163;50.118;5.342;2022-08-03T00:55:17;20.70;75.60
16118;DHT22;8163;50.118;5.342;2022-08-03T00:57:44;20.70;75.70
16118;DHT22;8163;50.118;5.342;2022-08-03T01:00:14;20.70;75.70
16118;DHT22;8163;50.118;5.342;2022-08-03T01:02:41;20.60;75.80
16118;DHT22;8163;50.118;5.342;2022-08-03T01:05:08;20.60;75.80
16118;DHT22;8163;50.118;5.342;2022-08-03T01:07:41;20.60;75.70
16118;DHT22;8163;50.118;5.342;2022-08-03T01:10:19;20.60;75.80
16118;DHT22;8163;50.118;5.342;2022-08-03T01:12:54;20.60;75.80
16118;DHT22;8163;50.118;5.342;2022-08-03T01:15:30;20.60;75.80
16118;DHT22;8163;50.118;5.342;2022-08-03T01:18:02;20.60;76.00
16118;DHT22;8163;50.118;5.342;2022-08-03T01:20:34;20.50;75.90
16118;DHT22;8163;50.118;5.342;2022-08-03T01:23:15;20.50;76.10
16118;DHT22;8163;50.118;5.342;2022-08-03T01:26:02;20.50;76.20
16118;DHT22;8163;50.118;5.342;2022-08-03T01:28:51;20.50;76.30
16118;DHT22;8163;50.118;5.342;2022-08-03T01:31:28;20.50;76.40
16118;DHT22;8163;50.118;5.342;2022-08-03T01:34:00;20.40;76.40
16118;DHT22;8163;50.118;5.342;2022-08-03T01:36:32;20.40;76.40
16118;DHT22;8163;50.118;5.342;2022-08-03T01:39:03;20.40;76.60
16118;DHT22;8163;50.118;5.342;2022-08-03T01:41:38;20.30;76.50
16118;DHT22;8163;50.118;5.342;2022-08-03T01:44:08;20.30;76.60
16118;DHT22;8163;50.118;5.342;2022-08-03T01:46:37;20.40;76.90
16118;DHT22;8163;50.118;5.342;2022-08-03T01:49:07;20.30;76.90
16118;DHT22;8163;50.118;5.342;2022-08-03T01:54:04;20.30;77.10
16118;DHT22;8163;50.118;5.342;2022-08-03T01:56:35;20.30;77.90
16118;DHT22;8163;50.118;5.342;2022-08-03T01:59:03;20.20;76.90
16118;DHT22;8163;50.118;5.342;2022-08-03T02:01:34;20.10;76.90
16118;DHT22;8163;50.118;5.342;2022-08-03T02:04:04;20.10;77.10
16118;DHT22;8163;50.118;5.342;2022-08-03T02:06:33;20.00;77.10
16118;DHT22;8163;50.118;5.342;2022-08-03T02:09:02;20.00;77.20
16118;DHT22;8163;50.118;5.342;2022-08-03T02:11:30;19.90;77.30
16118;DHT22;8163;50.118;5.342;2022-08-03T02:14:00;19.80;77.20
16118;DHT22;8163;50.118;5.342;2022-08-03T02:16:28;19.80;77.50
16118;DHT22;8163;50.118;5.342;2022-08-03T02:18:57;19.80;77.60
16118;DHT22;8163;50.118;5.342;2022-08-03T02:21:27;19.80;77.80
16118;DHT22;8163;50.118;5.342;2022-08-03T02:23:55;19.70;77.80
16118;DHT22;8163;50.118;5.342;2022-08-03T02:26:23;19.70;78.00
16118;DHT22;8163;50.118;5.342;2022-08-03T02:28:55;19.70;78.10
16118;DHT22;8163;50.118;5.342;2022-08-03T02:31:24;19.60;78.20
16118;DHT22;8163;50.118;5.342;2022-08-03T02:33:56;19.70;78.40
16118;DHT22;8163;50.118;5.342;2022-08-03T02:36:27;19.60;78.50
16118;DHT22;8163;50.118;5.342;2022-08-03T02:38:57;19.60;78.70
16118;DHT22;8163;50.118;5.342;2022-08-03T02:41:29;19.60;78.90
16118;DHT22;8163;50.118;5.342;2022-08-03T02:43:59;19.60;79.00
16118;DHT22;8163;50.118;5.342;2022-08-03T02:46:31;19.60;79.20
16118;DHT22;8163;50.118;5.342;2022-08-03T02:49:00;19.60;79.40
16118;DHT22;8163;50.118;5.342;2022-08-03T02:51:31;19.60;79.50
16118;DHT22;8163;50.118;5.342;2022-08-03T02:53:59;19.50;79.60
16118;DHT22;8163;50.118;5.342;2022-08-03T02:56:28;19.50;79.80
16118;DHT22;8163;50.118;5.342;2022-08-03T02:58:57;19.50;80.00
16118;DHT22;8163;50.118;5.342;2022-08-03T03:01:27;19.50;80.00
16118;DHT22;8163;50.118;5.342;2022-08-03T03:03:55;19.40;80.00
16118;DHT22;8163;50.118;5.342;2022-08-03T03:06:24;19.40;80.30
16118;DHT22;8163;50.118;5.342;2022-08-03T03:08:54;19.40;80.70
16118;DHT22;8163;50.118;5.342;2022-08-03T03:11:22;19.30;80.80
16118;DHT22;8163;50.118;5.342;2022-08-03T03:13:50;19.30;81.20
16118;DHT22;8163;50.118;5.342;2022-08-03T03:16:17;19.30;81.60
16118;DHT22;8163;50.118;5.342;2022-08-03T03:18:46;19.30;82.10
16118;DHT22;8163;50.118;5.342;2022-08-03T03:21:16;19.30;82.50
16118;DHT22;8163;50.118;5.342;2022-08-03T03:23:44;19.30;83.00
16118;DHT22;8163;50.118;5.342;2022-08-03T03:26:14;19.30;83.40
16118;DHT22;8163;50.118;5.342;2022-08-03T03:28:41;19.30;84.20
16118;DHT22;8163;50.118;5.342;2022-08-03T03:31:08;19.30;84.70
16118;DHT22;8163;50.118;5.342;2022-08-03T03:33:37;19.40;85.30
16118;DHT22;8163;50.118;5.342;2022-08-03T03:36:05;19.40;85.80
16118;DHT22;8163;50.118;5.342;2022-08-03T03:38:32;19.40;86.20
16118;DHT22;8163;50.118;5.342;2022-08-03T03:40:59;19.40;86.50
16118;DHT22;8163;50.118;5.342;2022-08-03T03:43:28;19.40;86.70
16118;DHT22;8163;50.118;5.342;2022-08-03T03:45:56;19.30;87.00
16118;DHT22;8163;50.118;5.342;2022-08-03T03:48:23;19.30;87.90
16118;DHT22;8163;50.118;5.342;2022-08-03T03:50:51;19.20;88.70
16118;DHT22;8163;50.118;5.342;2022-08-03T03:53:18;19.20;89.30
16118;DHT22;8163;50.118;5.342;2022-08-03T03:55:45;19.20;89.80
16118;DHT22;8163;50.118;5.342;2022-08-03T03:58:13;19.20;90.10
16118;DHT22;8163;50.118;5.342;2022-08-03T04:00:41;19.20;90.40
16118;DHT22;8163;50.118;5.342;2022-08-03T04:03:09;19.20;90.80
16118;DHT22;8163;50.118;5.342;2022-08-03T04:05:37;19.20;91.00
16118;DHT22;8163;50.118;5.342;2022-08-03T04:08:21;19.20;91.30
16118;DHT22;8163;50.118;5.342;2022-08-03T04:11:12;19.20;91.40
16118;DHT22;8163;50.118;5.342;2022-08-03T04:13:46;19.20;91.50
16118;DHT22;8163;50.118;5.342;2022-08-03T04:16:18;19.20;91.50
16118;DHT22;8163;50.118;5.342;2022-08-03T04:18:50;19.20;91.70
16118;DHT22;8163;50.118;5.342;2022-08-03T04:21:18;19.20;91.70
16118;DHT22;8163;50.118;5.342;2022-08-03T04:23:49;19.20;91.70
16118;DHT22;8163;50.118;5.342;2022-08-03T04:26:19;19.20;91.90
16118;DHT22;8163;50.118;5.342;2022-08-03T04:28:47;19.20;92.10
16118;DHT22;8163;50.118;5.342;2022-08-03T04:31:20;19.20;92.20
16118;DHT22;8163;50.118;5.342;2022-08-03T04:33:48;19.20;92.40
16118;DHT22;8163;50.118;5.342;2022-08-03T04:36:20;19.20;92.50
16118;DHT22;8163;50.118;5.342;2022-08-03T04:38:54;19.30;93.00
16118;DHT22;8163;50.118;5.342;2022-08-03T04:41:24;19.40;93.10
16118;DHT22;8163;50.118;5.342;2022-08-03T04:43:55;20.40;92.50
16118;DHT22;8163;50.118;5.342;2022-08-03T04:46:27;21.20;91.10
16118;DHT22;8163;50.118;5.342;2022-08-03T04:48:56;22.00;89.80
16118;DHT22;8163;50.118;5.342;2022-08-03T04:51:24;22.70;87.80
16118;DHT22;8163;50.118;5.342;2022-08-03T04:53:51;23.20;86.20
16118;DHT22;8163;50.118;5.342;2022-08-03T04:56:18;23.80;84.70
16118;DHT22;8163;50.118;5.342;2022-08-03T04:58:45;24.40;83.20
16118;DHT22;8163;50.118;5.342;2022-08-03T05:01:14;25.00;81.90
16118;DHT22;8163;50.118;5.342;2022-08-03T05:03:43;25.50;80.40
16118;DHT22;8163;50.118;5.342;2022-08-03T05:06:10;25.90;78.90
16118;DHT22;8163;50.118;5.342;2022-08-03T05:08:37;26.30;77.80
16118;DHT22;8163;50.118;5.342;2022-08-03T05:11:04;26.70;76.30
16118;DHT22;8163;50.118;5.342;2022-08-03T05:13:31;27.30;75.10
16118;DHT22;8163;50.118;5.342;2022-08-03T05:15:59;27.70;73.70
16118;DHT22;8163;50.118;5.342;2022-08-03T05:18:29;28.10;72.30
16118;DHT22;8163;50.118;5.342;2022-08-03T05:20:58;28.60;70.90
16118;DHT22;8163;50.118;5.342;2022-08-03T05:23:26;29.00;69.80
16118;DHT22;8163;50.118;5.342;2022-08-03T05:25:53;29.40;68.50
16118;DHT22;8163;50.118;5.342;2022-08-03T05:28:20;29.80;67.50
16118;DHT22;8163;50.118;5.342;2022-08-03T05:30:47;30.20;66.00
16118;DHT22;8163;50.118;5.342;2022-08-03T05:33:14;30.60;64.90
16118;DHT22;8163;50.118;5.342;2022-08-03T05:35:43;30.90;63.90
16118;DHT22;8163;50.118;5.342;2022-08-03T05:38:13;31.20;62.80
16118;DHT22;8163;50.118;5.342;2022-08-03T05:40:40;31.60;62.00
16118;DHT22;8163;50.118;5.342;2022-08-03T05:43:07;32.00;61.00
16118;DHT22;8163;50.118;5.342;2022-08-03T05:45:35;32.40;60.20
16118;DHT22;8163;50.118;5.342;2022-08-03T05:48:03;32.80;59.40
16118;DHT22;8163;50.118;5.342;2022-08-03T05:50:30;33.10;58.80
16118;DHT22;8163;50.118;5.342;2022-08-03T05:52:57;33.50;57.80
16118;DHT22;8163;50.118;5.342;2022-08-03T05:55:26;33.70;57.00
16118;DHT22;8163;50.118;5.342;2022-08-03T05:57:53;34.10;56.30
16118;DHT22;8163;50.118;5.342;2022-08-03T06:00:20;34.40;55.70
16118;DHT22;8163;50.118;5.342;2022-08-03T06:02:47;34.80;55.10
16118;DHT22;8163;50.118;5.342;2022-08-03T06:05:14;35.00;55.00
16118;DHT22;8163;50.118;5.342;2022-08-03T06:07:41;35.40;53.90
16118;DHT22;8163;50.118;5.342;2022-08-03T06:10:09;35.70;53.20
16118;DHT22;8163;50.118;5.342;2022-08-03T06:12:37;36.00;52.60
16118;DHT22;8163;50.118;5.342;2022-08-03T06:15:07;36.20;51.90
16118;DHT22;8163;50.118;5.342;2022-08-03T06:17:40;36.50;51.50
16118;DHT22;8163;50.118;5.342;2022-08-03T06:20:10;36.70;50.70
16118;DHT22;8163;50.118;5.342;2022-08-03T06:22:37;36.90;50.30
16118;DHT22;8163;50.118;5.342;2022-08-03T06:25:05;37.10;50.40
16118;DHT22;8163;50.118;5.342;2022-08-03T06:27:32;37.20;49.20
16118;DHT22;8163;50.118;5.342;2022-08-03T06:30:03;37.30;48.60
16118;DHT22;8163;50.118;5.342;2022-08-03T06:32:30;37.60;48.40
16118;DHT22;8163;50.118;5.342;2022-08-03T06:34:58;37.80;48.00
16118;DHT22;8163;50.118;5.342;2022-08-03T06:37:25;38.00;47.70
16118;DHT22;8163;50.118;5.342;2022-08-03T06:39:53;38.20;47.20
16118;DHT22;8163;50.118;5.342;2022-08-03T06:42:20;38.30;46.60
16118;DHT22;8163;50.118;5.342;2022-08-03T06:44:47;38.40;46.30
16118;DHT22;8163;50.118;5.342;2022-08-03T06:47:16;38.60;46.10
16118;DHT22;8163;50.118;5.342;2022-08-03T06:49:47;38.60;45.50
16118;DHT22;8163;50.118;5.342;2022-08-03T06:52:20;38.40;45.30
16118;DHT22;8163;50.118;5.342;2022-08-03T06:54:47;38.40;45.20
16118;DHT22;8163;50.118;5.342;2022-08-03T06:57:15;38.70;45.30
16118;DHT22;8163;50.118;5.342;2022-08-03T06:59:43;38.80;44.90
16118;DHT22;8163;50.118;5.342;2022-08-03T07:02:10;38.90;44.30
16118;DHT22;8163;50.118;5.342;2022-08-03T07:04:38;39.00;44.10
16118;DHT22;8163;50.118;5.342;2022-08-03T07:07:05;39.20;44.10
16118;DHT22;8163;50.118;5.342;2022-08-03T07:09:32;39.40;44.00
16118;DHT22;8163;50.118;5.342;2022-08-03T07:12:01;39.70;43.80
16118;DHT22;8163;50.118;5.342;2022-08-03T07:14:32;39.80;43.20
16118;DHT22;8163;50.118;5.342;2022-08-03T07:17:01;39.90;42.90
16118;DHT22;8163;50.118;5.342;2022-08-03T07:19:28;39.90;42.70
16118;DHT22;8163;50.118;5.342;2022-08-03T07:21:57;40.00;42.50
16118;DHT22;8163;50.118;5.342;2022-08-03T07:24:26;40.00;42.40
16118;DHT22;8163;50.118;5.342;2022-08-03T07:26:53;40.00;42.00
16118;DHT22;8163;50.118;5.342;2022-08-03T07:29:23;40.00;41.60
16118;DHT22;8163;50.118;5.342;2022-08-03T07:31:50;40.10;41.60
16118;DHT22;8163;50.118;5.342;2022-08-03T07:34:17;40.20;41.40
16118;DHT22;8163;50.118;5.342;2022-08-03T07:36:44;40.40;41.20
16118;DHT22;8163;50.118;5.342;2022-08-03T07:39:12;40.70;41.10
16118;DHT22;8163;50.118;5.342;2022-08-03T07:41:39;40.90;40.70
16118;DHT22;8163;50.118;5.342;2022-08-03T07:44:06;41.00;40.50
16118;DHT22;8163;50.118;5.342;2022-08-03T07:46:33;41.20;40.20
16118;DHT22;8163;50.118;5.342;2022-08-03T07:49:00;41.20;40.30
16118;DHT22;8163;50.118;5.342;2022-08-03T07:51:27;41.20;39.80
16118;DHT22;8163;50.118;5.342;2022-08-03T07:53:54;41.30;39.80
16118;DHT22;8163;50.118;5.342;2022-08-03T07:56:23;41.40;39.80
16118;DHT22;8163;50.118;5.342;2022-08-03T07:58:52;41.60;40.20
16118;DHT22;8163;50.118;5.342;2022-08-03T08:01:19;41.80;39.10
16118;DHT22;8163;50.118;5.342;2022-08-03T08:03:46;41.80;38.90
16118;DHT22;8163;50.118;5.342;2022-08-03T08:06:13;41.70;38.80
16118;DHT22;8163;50.118;5.342;2022-08-03T08:08:41;41.90;39.20
16118;DHT22;8163;50.118;5.342;2022-08-03T08:11:08;42.20;39.10
16118;DHT22;8163;50.118;5.342;2022-08-03T08:13:36;42.50;38.80
16118;DHT22;8163;50.118;5.342;2022-08-03T08:16:04;42.50;38.10
16118;DHT22;8163;50.118;5.342;2022-08-03T08:18:31;42.40;38.10
16118;DHT22;8163;50.118;5.342;2022-08-03T08:21:00;42.50;38.00
16118;DHT22;8163;50.118;5.342;2022-08-03T08:23:28;42.20;37.40
16118;DHT22;8163;50.118;5.342;2022-08-03T08:25:57;41.80;37.40
16118;DHT22;8163;50.118;5.342;2022-08-03T08:28:25;41.50;37.90
16118;DHT22;8163;50.118;5.342;2022-08-03T08:30:54;41.60;38.10
16118;DHT22;8163;50.118;5.342;2022-08-03T08:33:21;41.40;37.70
16118;DHT22;8163;50.118;5.342;2022-08-03T08:35:52;41.20;38.00
16118;DHT22;8163;50.118;5.342;2022-08-03T08:38:19;41.30;38.10
16118;DHT22;8163;50.118;5.342;2022-08-03T08:40:48;41.40;38.10
16118;DHT22;8163;50.118;5.342;2022-08-03T08:43:15;41.70;38.20
16118;DHT22;8163;50.118;5.342;2022-08-03T08:45:45;42.10;38.00
16118;DHT22;8163;50.118;5.342;2022-08-03T08:48:17;42.40;37.60
16118;DHT22;8163;50.118;5.342;2022-08-03T08:50:51;42.70;37.30
16118;DHT22;8163;50.118;5.342;2022-08-03T08:53:30;42.80;36.90
16118;DHT22;8163;50.118;5.342;2022-08-03T08:56:02;42.50;36.30
16118;DHT22;8163;50.118;5.342;2022-08-03T08:58:33;42.30;36.30
16118;DHT22;8163;50.118;5.342;2022-08-03T09:01:01;42.40;36.60
16118;DHT22;8163;50.118;5.342;2022-08-03T09:03:32;42.40;36.70
16118;DHT22;8163;50.118;5.342;2022-08-03T09:05:59;42.60;36.70
16118;DHT22;8163;50.118;5.342;2022-08-03T09:47:29;39.00;38.50
16118;DHT22;8163;50.118;5.342;2022-08-03T09:50:03;39.50;39.00
16118;DHT22;8163;50.118;5.342;2022-08-03T09:52:32;40.20;38.70
16118;DHT22;8163;50.118;5.342;2022-08-03T09:55:01;40.80;38.30
16118;DHT22;8163;50.118;5.342;2022-08-03T09:57:28;41.20;38.00
16118;DHT22;8163;50.118;5.342;2022-08-03T10:00:06;41.60;37.30
16118;DHT22;8163;50.118;5.342;2022-08-03T10:02:37;41.50;36.40
16118;DHT22;8163;50.118;5.342;2022-08-03T10:05:05;41.60;36.60
16118;DHT22;8163;50.118;5.342;2022-08-03T10:07:41;41.70;36.50
16118;DHT22;8163;50.118;5.342;2022-08-03T10:10:12;41.90;36.00
16118;DHT22;8163;50.118;5.342;2022-08-03T10:12:43;41.90;35.50
16118;DHT22;8163;50.118;5.342;2022-08-03T10:15:10;42.10;35.60
16118;DHT22;8163;50.118;5.342;2022-08-03T10:17:39;42.30;35.70
16118;DHT22;8163;50.118;5.342;2022-08-03T10:20:10;42.40;35.30
16118;DHT22;8163;50.118;5.342;2022-08-03T10:22:39;42.40;35.00
16118;DHT22;8163;50.118;5.342;2022-08-03T10:25:09;42.10;34.40
16118;DHT22;8163;50.118;5.342;2022-08-03T10:27:39;42.00;34.60
16118;DHT22;8163;50.118;5.342;2022-08-03T10:30:10;42.10;34.70
16118;DHT22;8163;50.118;5.342;2022-08-03T10:32:40;42.00;34.10
16118;DHT22;8163;50.118;5.342;2022-08-03T10:35:11;41.90;34.30
16118;DHT22;8163;50.118;5.342;2022-08-03T10:37:41;42.10;34.40
16118;DHT22;8163;50.118;5.342;2022-08-03T10:40:12;42.40;34.50
16118;DHT22;8163;50.118;5.342;2022-08-03T10:42:41;42.40;34.00
16118;DHT22;8163;50.118;5.342;2022-08-03T10:45:17;42.30;33.90
16118;DHT22;8163;50.118;5.342;2022-08-03T10:47:48;42.20;34.00
16118;DHT22;8163;50.118;5.342;2022-08-03T10:50:16;42.20;34.10
16118;DHT22;8163;50.118;5.342;2022-08-03T10:52:56;42.40;34.00
16118;DHT22;8163;50.118;5.342;2022-08-03T10:55:30;42.40;34.10
16118;DHT22;8163;50.118;5.342;2022-08-03T10:58:46;42.40;33.40
16118;DHT22;8163;50.118;5.342;2022-08-03T11:01:19;42.30;32.90
16118;DHT22;8163;50.118;5.342;2022-08-03T11:04:17;42.10;33.10
16118;DHT22;8163;50.118;5.342;2022-08-03T11:06:46;42.00;33.50
16118;DHT22;8163;50.118;5.342;2022-08-03T11:09:17;42.00;33.70
16118;DHT22;8163;50.118;5.342;2022-08-03T11:11:46;41.90;33.60
16118;DHT22;8163;50.118;5.342;2022-08-03T11:14:17;41.80;33.60
16118;DHT22;8163;50.118;5.342;2022-08-03T11:16:47;41.10;34.00
16118;DHT22;8163;50.118;5.342;2022-08-03T11:19:17;41.30;34.50
16118;DHT22;8163;50.118;5.342;2022-08-03T11:21:54;41.60;34.60
16118;DHT22;8163;50.118;5.342;2022-08-03T11:24:59;42.00;34.50
16118;DHT22;8163;50.118;5.342;2022-08-03T11:27:31;42.10;34.10
16118;DHT22;8163;50.118;5.342;2022-08-03T11:30:01;41.90;34.00
16118;DHT22;8163;50.118;5.342;2022-08-03T11:32:56;42.10;34.00
16118;DHT22;8163;50.118;5.342;2022-08-03T11:35:27;42.60;33.80
16118;DHT22;8163;50.118;5.342;2022-08-03T11:38:05;42.60;33.30
16118;DHT22;8163;50.118;5.342;2022-08-03T11:40:44;42.30;33.00
16118;DHT22;8163;50.118;5.342;2022-08-03T11:43:45;41.90;33.30
16118;DHT22;8163;50.118;5.342;2022-08-03T11:46:13;41.90;33.60
16118;DHT22;8163;50.118;5.342;2022-08-03T11:48:46;42.00;33.60
16118;DHT22;8163;50.118;5.342;2022-08-03T11:51:23;41.80;33.40
16118;DHT22;8163;50.118;5.342;2022-08-03T11:53:55;40.80;33.40
16118;DHT22;8163;50.118;5.342;2022-08-03T11:56:22;39.50;34.10
16118;DHT22;8163;50.118;5.342;2022-08-03T11:58:51;38.90;34.80
16118;DHT22;8163;50.118;5.342;2022-08-03T12:01:19;38.80;35.40
16118;DHT22;8163;50.118;5.342;2022-08-03T12:03:52;39.00;35.60
16118;DHT22;8163;50.118;5.342;2022-08-03T12:06:19;38.70;35.60
16118;DHT22;8163;50.118;5.342;2022-08-03T12:08:49;38.40;35.80
16118;DHT22;8163;50.118;5.342;2022-08-03T12:11:17;38.20;36.20
16118;DHT22;8163;50.118;5.342;2022-08-03T12:13:45;38.80;36.30
16118;DHT22;8163;50.118;5.342;2022-08-03T12:16:24;38.50;36.30
16118;DHT22;8163;50.118;5.342;2022-08-03T12:18:57;38.80;36.50
16118;DHT22;8163;50.118;5.342;2022-08-03T12:21:27;39.50;36.50
16118;DHT22;8163;50.118;5.342;2022-08-03T12:24:00;40.20;36.50
16118;DHT22;8163;50.118;5.342;2022-08-03T12:26:28;40.70;35.90
16118;DHT22;8163;50.118;5.342;2022-08-03T12:28:55;41.00;35.40
16118;DHT22;8163;50.118;5.342;2022-08-03T12:31:23;41.30;35.20
16118;DHT22;8163;50.118;5.342;2022-08-03T12:33:59;41.30;34.70
16118;DHT22;8163;50.118;5.342;2022-08-03T12:36:28;41.40;34.10
16118;DHT22;8163;50.118;5.342;2022-08-03T12:38:59;41.10;34.10
16118;DHT22;8163;50.118;5.342;2022-08-03T12:41:28;41.00;34.10
16118;DHT22;8163;50.118;5.342;2022-08-03T12:43:56;41.00;34.20
16118;DHT22;8163;50.118;5.342;2022-08-03T12:46:29;41.10;34.20
16118;DHT22;8163;50.118;5.342;2022-08-03T12:49:05;41.30;34.10
16118;DHT22;8163;50.118;5.342;2022-08-03T12:51:34;41.00;33.80
16118;DHT22;8163;50.118;5.342;2022-08-03T12:54:04;40.70;33.70
16118;DHT22;8163;50.118;5.342;2022-08-03T12:56:32;40.00;34.00
16118;DHT22;8163;50.118;5.342;2022-08-03T12:58:59;39.70;34.60
16118;DHT22;8163;50.118;5.342;2022-08-03T13:01:36;39.60;34.50
16118;DHT22;8163;50.118;5.342;2022-08-03T13:04:03;39.70;34.90
16118;DHT22;8163;50.118;5.342;2022-08-03T13:06:34;39.70;34.90
16118;DHT22;8163;50.118;5.342;2022-08-03T13:09:04;39.80;35.20
16118;DHT22;8163;50.118;5.342;2022-08-03T13:11:34;40.00;35.20
16118;DHT22;8163;50.118;5.342;2022-08-03T13:14:01;40.20;35.00
16118;DHT22;8163;50.118;5.342;2022-08-03T13:16:28;40.30;35.00
16118;DHT22;8163;50.118;5.342;2022-08-03T13:18:56;40.30;35.00
16118;DHT22;8163;50.118;5.342;2022-08-03T13:21:23;39.90;34.70
16118;DHT22;8163;50.118;5.342;2022-08-03T13:23:50;39.40;34.70
16118;DHT22;8163;50.118;5.342;2022-08-03T13:26:18;38.80;34.90
16118;DHT22;8163;50.118;5.342;2022-08-03T13:28:45;38.70;35.20
16118;DHT22;8163;50.118;5.342;2022-08-03T13:31:13;38.80;35.40
16118;DHT22;8163;50.118;5.342;2022-08-03T13:33:41;38.70;35.40
16118;DHT22;8163;50.118;5.342;2022-08-03T13:36:08;38.10;35.30
16118;DHT22;8163;50.118;5.342;2022-08-03T13:38:35;37.60;35.50
16118;DHT22;8163;50.118;5.342;2022-08-03T13:41:02;37.50;35.80
16118;DHT22;8163;50.118;5.342;2022-08-03T13:43:30;37.60;36.30
16118;DHT22;8163;50.118;5.342;2022-08-03T13:45:57;37.80;36.70
16118;DHT22;8163;50.118;5.342;2022-08-03T13:48:24;37.80;36.70
16118;DHT22;8163;50.118;5.342;2022-08-03T13:50:57;37.80;36.70
16118;DHT22;8163;50.118;5.342;2022-08-03T13:53:25;37.70;36.70
16118;DHT22;8163;50.118;5.342;2022-08-03T13:55:52;37.40;36.50
16118;DHT22;8163;50.118;5.342;2022-08-03T13:58:20;36.80;36.40
16118;DHT22;8163;50.118;5.342;2022-08-03T14:00:49;36.50;36.80
16118;DHT22;8163;50.118;5.342;2022-08-03T14:03:19;36.80;37.10
16118;DHT22;8163;50.118;5.342;2022-08-03T14:05:46;37.10;37.20
16118;DHT22;8163;50.118;5.342;2022-08-03T14:08:22;37.20;36.90
16118;DHT22;8163;50.118;5.342;2022-08-03T14:10:49;37.10;36.80
16118;DHT22;8163;50.118;5.342;2022-08-03T14:13:18;37.00;36.80
16118;DHT22;8163;50.118;5.342;2022-08-03T14:15:54;36.90;36.80
16118;DHT22;8163;50.118;5.342;2022-08-03T14:18:21;36.70;37.00
16118;DHT22;8163;50.118;5.342;2022-08-03T14:20:54;36.60;37.00
16118;DHT22;8163;50.118;5.342;2022-08-03T14:23:24;36.50;37.10
16118;DHT22;8163;50.118;5.342;2022-08-03T14:25:51;36.40;37.20
16118;DHT22;8163;50.118;5.342;2022-08-03T14:28:20;36.30;37.30
16118;DHT22;8163;50.118;5.342;2022-08-03T14:30:50;36.30;37.40
16118;DHT22;8163;50.118;5.342;2022-08-03T14:33:27;36.30;37.40
16118;DHT22;8163;50.118;5.342;2022-08-03T14:35:54;36.20;37.40
16118;DHT22;8163;50.118;5.342;2022-08-03T14:38:27;36.20;37.60
16118;DHT22;8163;50.118;5.342;2022-08-03T14:40:54;36.20;37.80
16118;DHT22;8163;50.118;5.342;2022-08-03T14:43:21;36.20;37.80
16118;DHT22;8163;50.118;5.342;2022-08-03T14:45:49;36.20;38.10
16118;DHT22;8163;50.118;5.342;2022-08-03T14:48:18;36.00;38.20
16118;DHT22;8163;50.118;5.342;2022-08-03T14:50:53;36.00;38.30
16118;DHT22;8163;50.118;5.342;2022-08-03T14:53:21;35.90;38.40
16118;DHT22;8163;50.118;5.342;2022-08-03T14:55:48;35.80;38.50
16118;DHT22;8163;50.118;5.342;2022-08-03T14:58:22;35.90;38.60
16118;DHT22;8163;50.118;5.342;2022-08-03T15:00:51;35.90;38.70
16118;DHT22;8163;50.118;5.342;2022-08-03T15:03:21;35.90;38.60
16118;DHT22;8163;50.118;5.342;2022-08-03T15:05:50;35.90;38.60
16118;DHT22;8163;50.118;5.342;2022-08-03T15:08:21;35.70;38.60
16118;DHT22;8163;50.118;5.342;2022-08-03T15:10:48;35.60;38.80
16118;DHT22;8163;50.118;5.342;2022-08-03T15:13:15;35.50;39.00
16118;DHT22;8163;50.118;5.342;2022-08-03T15:15:44;35.60;39.20
16118;DHT22;8163;50.118;5.342;2022-08-03T15:18:12;35.60;39.20
16118;DHT22;8163;50.118;5.342;2022-08-03T15:20:39;35.60;39.20
16118;DHT22;8163;50.118;5.342;2022-08-03T15:23:06;35.50;39.00
16118;DHT22;8163;50.118;5.342;2022-08-03T15:25:34;35.40;39.70
16118;DHT22;8163;50.118;5.342;2022-08-03T15:28:01;35.40;39.30
16118;DHT22;8163;50.118;5.342;2022-08-03T15:30:31;35.30;39.40
16118;DHT22;8163;50.118;5.342;2022-08-03T15:33:01;35.20;39.50
16118;DHT22;8163;50.118;5.342;2022-08-03T15:35:28;35.20;40.30
16118;DHT22;8163;50.118;5.342;2022-08-03T15:37:58;35.10;39.70
16118;DHT22;8163;50.118;5.342;2022-08-03T15:40:25;35.00;39.60
16118;DHT22;8163;50.118;5.342;2022-08-03T15:42:54;34.90;39.80
16118;DHT22;8163;50.118;5.342;2022-08-03T15:45:24;34.80;40.10
16118;DHT22;8163;50.118;5.342;2022-08-03T15:47:51;34.70;40.40
16118;DHT22;8163;50.118;5.342;2022-08-03T15:50:19;34.60;40.70
16118;DHT22;8163;50.118;5.342;2022-08-03T15:52:46;34.60;41.00
16118;DHT22;8163;50.118;5.342;2022-08-03T15:55:15;34.50;41.10
16118;DHT22;8163;50.118;5.342;2022-08-03T15:57:42;34.40;41.10
16118;DHT22;8163;50.118;5.342;2022-08-03T16:00:12;34.20;41.10
16118;DHT22;8163;50.118;5.342;2022-08-03T16:02:39;34.10;41.60
16118;DHT22;8163;50.118;5.342;2022-08-03T16:05:07;34.00;41.70
16118;DHT22;8163;50.118;5.342;2022-08-03T16:07:35;34.00;41.90
16118;DHT22;8163;50.118;5.342;2022-08-03T16:10:15;33.80;42.00
16118;DHT22;8163;50.118;5.342;2022-08-03T16:12:46;33.60;42.10
16118;DHT22;8163;50.118;5.342;2022-08-03T16:15:15;33.50;42.20
16118;DHT22;8163;50.118;5.342;2022-08-03T16:17:42;33.40;42.40
16118;DHT22;8163;50.118;5.342;2022-08-03T16:20:10;33.30;42.50
16118;DHT22;8163;50.118;5.342;2022-08-03T16:22:46;33.20;42.70
16118;DHT22;8163;50.118;5.342;2022-08-03T16:25:15;33.20;42.90
16118;DHT22;8163;50.118;5.342;2022-08-03T16:27:48;33.20;43.10
16118;DHT22;8163;50.118;5.342;2022-08-03T16:30:16;33.20;43.30
16118;DHT22;8163;50.118;5.342;2022-08-03T16:32:44;33.20;43.30
16118;DHT22;8163;50.118;5.342;2022-08-03T16:35:12;33.20;43.30
16118;DHT22;8163;50.118;5.342;2022-08-03T16:37:39;33.30;43.90
16118;DHT22;8163;50.118;5.342;2022-08-03T16:40:12;33.40;43.30
16118;DHT22;8163;50.118;5.342;2022-08-03T16:42:40;33.40;43.40